Time;durP1;ratioP1;P1;durP2;ratioP2;P2;SDS_P1;SDS_P2;PMS_P1;PMS_P2;Temp;Humidity;BMP_temperature;BMP_pressure;BME280_temperature;BME280_humidity;BME280_pressure;Samples;Min_cycle;Max_cycle;Signal;HPM_P1;HPM_P2
2023/12/14 00:01:31;;;;;;;7.90;3.00;;;;;;;6.24;100.00;94757.84;5133260;27;20505;-57
2023/12/14 00:04:02;;;;;;;2.87;2.67;;;;;;;6.13;100.00;94714.09;5134045;27;20434;-58
2023/12/14 00:06:31;;;;;;;3.50;3.00;;;;;;;6.60;100.00;94750.91;5133967;27;20438;-58
2023/12/14 00:08:59;;;;;;;3.37;3.17;;;;;;;6.59;100.00;94749.31;5133902;27;20469;-58
2023/12/14 00:11:28;;;;;;;2.83;2.60;;;;;;;6.66;100.00;94751.69;5133643;27;20800;-58
2023/12/14 00:13:57;;;;;;;6.90;3.50;;;;;;;6.55;100.00;94758.78;5133796;27;20467;-58
2023/12/14 00:16:25;;;;;;;9.50;1.70;;;;;;;6.67;100.00;94763.81;5133548;27;20435;-59
2023/12/14 00:18:54;;;;;;;0.80;0.80;;;;;;;6.59;100.00;94775.66;5133352;27;20445;-58
2023/12/14 00:21:24;;;;;;;2.27;2.17;;;;;;;6.49;100.00;94759.00;5134071;27;20466;-58
2023/12/14 00:23:52;;;;;;;5.27;2.30;;;;;;;6.42;100.00;94759.25;5133432;27;20957;-58
2023/12/14 00:26:21;;;;;;;3.97;3.77;;;;;;;6.53;100.00;94770.63;5134073;27;20497;-58
2023/12/14 00:28:50;;;;;;;5.27;2.40;;;;;;;6.62;100.00;94766.44;5133742;27;20820;-58
2023/12/14 00:31:21;;;;;;;2.43;2.23;;;;;;;6.62;100.00;94769.06;5133395;27;20438;-58
2023/12/14 00:33:49;;;;;;;1.63;1.50;;;;;;;6.63;100.00;94773.31;5133595;27;20811;-58
2023/12/14 00:36:21;;;;;;;2.13;2.03;;;;;;;6.39;100.00;94780.81;5133607;27;20438;-58
2023/12/14 00:38:51;;;;;;;3.87;3.67;;;;;;;6.15;100.00;94769.88;5132901;27;20427;-58
2023/12/14 00:41:19;;;;;;;1.23;1.23;;;;;;;6.14;100.00;94789.38;5133614;27;20467;-58
2023/12/14 00:43:48;;;;;;;3.07;2.80;;;;;;;6.25;100.00;94779.66;5133536;27;20942;-58
2023/12/14 00:46:16;;;;;;;9.23;2.73;;;;;;;6.33;100.00;94787.88;5133279;27;20531;-57
2023/12/14 00:48:45;;;;;;;5.57;3.17;;;;;;;6.43;100.00;94787.16;5133268;27;20422;-58
2023/12/14 00:51:13;;;;;;;0.93;0.93;;;;;;;6.50;100.00;94774.56;5133046;27;20845;-57
2023/12/14 00:53:42;;;;;;;3.17;2.87;;;;;;;6.09;100.00;94791.16;5130400;27;20876;-58
2023/12/14 00:56:12;;;;;;;3.13;2.60;;;;;;;5.68;100.00;94792.69;5132106;27;20811;-58
2023/12/14 00:58:41;;;;;;;4.00;2.73;;;;;;;5.86;100.00;94788.91;5132921;27;20435;-58
2023/12/14 01:01:10;;;;;;;4.97;2.40;;;;;;;5.60;100.00;94791.31;5133154;27;20811;-57
2023/12/14 01:03:38;;;;;;;3.20;2.00;;;;;;;5.65;100.00;94783.47;5132595;27;20491;-58
2023/12/14 01:06:07;;;;;;;1.37;1.30;;;;;;;5.65;100.00;94790.56;5132124;27;20981;-58
2023/12/14 01:08:36;;;;;;;2.23;1.30;;;;;;;5.73;100.00;94774.31;5133064;27;20439;-58
2023/12/14 01:11:05;;;;;;;1.73;1.63;;;;;;;6.08;100.00;94773.78;5132496;27;20442;-58
2023/12/14 01:13:35;;;;;;;1.10;0.80;;;;;;;6.26;100.00;94774.19;5133115;27;20438;-59
2023/12/14 01:16:04;;;;;;;0.80;0.80;;;;;;;6.36;100.00;94762.91;5128546;27;20932;-59
2023/12/14 01:18:32;;;;;;;1.57;0.97;;;;;;;6.16;100.00;94760.97;5123750;27;20446;-59
2023/12/14 01:21:01;;;;;;;1.03;0.90;;;;;;;6.15;100.00;94772.53;5132878;27;20457;-58
2023/12/14 01:23:30;;;;;;;1.13;1.13;;;;;;;6.28;100.00;94769.44;5133014;27;20462;-57
2023/12/14 01:25:58;;;;;;;0.73;0.70;;;;;;;6.20;100.00;94777.81;5132602;27;20480;-57
2023/12/14 01:28:27;;;;;;;1.27;1.23;;;;;;;6.30;100.00;94769.19;5132976;27;20431;-58
2023/12/14 01:30:57;;;;;;;3.37;3.17;;;;;;;6.20;100.00;94762.03;5132733;27;20458;-58
2023/12/14 01:33:26;;;;;;;0.73;0.73;;;;;;;6.26;100.00;94776.81;5132747;27;20530;-59
2023/12/14 01:35:55;;;;;;;1.70;1.60;;;;;;;6.21;100.00;94774.16;5132654;27;20438;-58
2023/12/14 01:38:23;;;;;;;0.40;0.33;;;;;;;6.17;100.00;94748.59;5132302;27;21010;-58
2023/12/14 01:40:52;;;;;;;0.50;0.50;;;;;;;6.17;100.00;94744.09;5132545;27;21007;-58
2023/12/14 01:43:21;;;;;;;1.90;1.70;;;;;;;6.26;100.00;94745.22;5132449;28;20441;-58
2023/12/14 01:45:49;;;;;;;1.27;1.20;;;;;;;6.14;100.00;94747.28;5132396;27;20477;-58
2023/12/14 01:48:19;;;;;;;4.90;1.53;;;;;;;5.92;100.00;94743.97;5132289;27;20431;-58
2023/12/14 01:50:48;;;;;;;0.80;0.63;;;;;;;6.08;100.00;94748.28;5132307;27;20469;-57
2023/12/14 01:53:16;;;;;;;2.17;1.40;;;;;;;5.94;100.00;94728.75;5131702;27;20442;-58
2023/12/14 01:55:45;;;;;;;4.00;0.73;;;;;;;6.12;100.00;94744.09;5132804;27;20509;-58
2023/12/14 01:58:14;;;;;;;1.83;1.73;;;;;;;6.14;100.00;94749.91;5135648;27;20430;-58
2023/12/14 02:00:50;;;;;;;2.07;1.17;;;;;;;5.55;100.00;94735.28;5136007;27;20442;-58
2023/12/14 02:03:20;;;;;;;1.80;1.57;;;;;;;5.02;100.00;94742.19;5136583;27;20514;-58
2023/12/14 02:05:48;;;;;;;1.20;1.10;;;;;;;4.95;100.00;94736.34;5136039;27;20462;-58
2023/12/14 02:08:17;;;;;;;1.43;1.33;;;;;;;5.36;100.00;94742.78;5135512;27;20438;-58
2023/12/14 02:10:48;;;;;;;1.47;1.37;;;;;;;5.56;100.00;94744.75;5135588;27;20498;-58
2023/12/14 02:13:16;;;;;;;2.20;2.10;;;;;;;5.62;100.00;94738.47;5136459;27;20477;-58
2023/12/14 02:15:45;;;;;;;1.20;0.87;;;;;;;5.67;100.00;94747.19;5135860;27;20498;-59
2023/12/14 02:18:14;;;;;;;2.60;1.27;;;;;;;5.96;100.00;94750.31;5136151;27;20434;-59
2023/12/14 02:20:44;;;;;;;1.47;1.37;;;;;;;5.96;100.00;94758.22;5136032;27;20466;-58
2023/12/14 02:23:14;;;;;;;2.30;1.73;;;;;;;5.70;100.00;94753.78;5136187;27;20434;-59
2023/12/14 02:25:42;;;;;;;2.80;1.67;;;;;;;5.16;100.00;94736.53;5135769;27;20474;-59
2023/12/14 02:28:11;;;;;;;1.27;1.23;;;;;;;5.36;100.00;94748.03;5136598;27;20442;-59
2023/12/14 02:30:40;;;;;;;1.37;1.37;;;;;;;5.25;100.00;94754.22;5136109;27;20430;-57
2023/12/14 02:33:08;;;;;;;5.13;2.93;;;;;;;4.83;100.00;94734.91;5136097;27;20982;-57
2023/12/14 02:35:37;;;;;;;3.07;1.90;;;;;;;4.90;100.00;94746.81;5135576;27;20464;-58
2023/12/14 02:38:05;;;;;;;1.83;1.73;;;;;;;5.06;100.00;94750.34;5136092;27;20434;-57
2023/12/14 02:40:36;;;;;;;3.37;3.07;;;;;;;4.99;100.00;94732.19;5135797;27;20504;-58
2023/12/14 02:43:04;;;;;;;2.63;2.53;;;;;;;5.13;100.00;94743.09;5135680;27;20438;-58
2023/12/14 02:45:33;;;;;;;7.47;3.00;;;;;;;5.04;100.00;94721.72;5135494;27;20466;-58
2023/12/14 02:48:01;;;;;;;5.20;2.23;;;;;;;5.24;100.00;94736.88;5135224;27;20837;-58
2023/12/14 02:50:30;;;;;;;3.70;3.40;;;;;;;5.36;100.00;94734.88;5134900;27;21070;-58
2023/12/14 02:52:59;;;;;;;1.00;1.00;;;;;;;5.15;100.00;94712.09;5133924;27;20434;-58
2023/12/14 02:55:28;;;;;;;2.50;2.30;;;;;;;5.28;100.00;94734.53;5134414;28;20797;-58
2023/12/14 02:57:58;;;;;;;12.00;1.73;;;;;;;5.30;100.00;94727.19;5134226;27;20442;-58
2023/12/14 03:00:27;;;;;;;2.47;2.33;;;;;;;5.50;100.00;94736.03;5133984;28;20438;-57
2023/12/14 03:02:55;;;;;;;2.70;1.87;;;;;;;5.38;100.00;94734.63;5133951;28;20460;-59
2023/12/14 03:05:24;;;;;;;4.00;1.50;;;;;;;5.47;100.00;94731.28;5134788;27;20563;-58
2023/12/14 03:07:52;;;;;;;1.90;1.77;;;;;;;5.62;100.00;94733.22;5133472;27;20884;-58
2023/12/14 03:10:21;;;;;;;1.93;1.70;;;;;;;5.35;100.00;94727.25;5133590;28;20474;-58
2023/12/14 03:12:50;;;;;;;3.83;1.87;;;;;;;5.24;100.00;94707.97;5120209;28;20431;-58
2023/12/14 03:15:20;;;;;;;3.00;2.50;;;;;;;5.47;100.00;94735.75;5134062;28;20432;-57
2023/12/14 03:17:48;;;;;;;4.60;2.27;;;;;;;5.42;100.00;94719.94;5134098;28;20791;-57
2023/12/14 03:20:17;;;;;;;2.60;2.43;;;;;;;5.32;100.00;94733.78;5134067;27;20888;-58
2023/12/14 03:22:45;;;;;;;2.63;2.43;;;;;;;5.43;100.00;94747.81;5133610;28;20499;-59
2023/12/14 03:25:14;;;;;;;3.80;3.40;;;;;;;5.21;100.00;94745.28;5133635;28;20827;-58
2023/12/14 03:27:43;;;;;;;6.10;2.30;;;;;;;4.67;100.00;94741.84;5126558;27;20849;-58
2023/12/14 03:30:13;;;;;;;4.83;3.87;;;;;;;4.90;100.00;94741.56;5128254;28;20491;-57
2023/12/14 03:32:43;;;;;;;15.13;2.90;;;;;;;4.52;100.00;94712.00;5133371;28;20514;-59
2023/12/14 03:35:12;;;;;;;2.47;2.37;;;;;;;4.98;100.00;94732.44;5133706;28;20522;-59
2023/12/14 03:37:40;;;;;;;3.40;3.20;;;;;;;5.18;100.00;94755.47;5133067;27;20446;-59
2023/12/14 03:40:09;;;;;;;3.87;2.90;;;;;;;5.26;100.00;94755.03;5132674;27;20958;-58
2023/12/14 03:42:38;;;;;;;2.63;2.53;;;;;;;5.15;100.00;94738.38;5133347;27;20465;-58
2023/12/14 03:45:07;;;;;;;4.23;1.70;;;;;;;5.12;100.00;94750.16;5132984;28;20462;-58
2023/12/14 03:47:36;;;;;;;2.50;2.30;;;;;;;5.20;100.00;94730.53;5133882;27;20527;-59
2023/12/14 03:50:09;;;;;;;8.23;1.70;;;;;;;5.30;100.00;94751.63;5077951;27;1555708;-58
2023/12/14 03:52:37;;;;;;;19.37;3.33;;;;;;;5.41;100.00;94747.28;5134234;27;20439;-58
2023/12/14 03:55:07;;;;;;;3.50;1.60;;;;;;;5.18;100.00;94742.34;5133674;27;20442;-58
2023/12/14 03:57:37;;;;;;;6.97;2.63;;;;;;;5.17;100.00;94731.03;5134106;27;20438;-59
2023/12/14 04:00:08;;;;;;;1.93;1.83;;;;;;;5.11;100.00;94743.31;5133685;27;20441;-58
2023/12/14 04:02:37;;;;;;;3.17;2.87;;;;;;;4.71;100.00;94747.38;5134131;27;20901;-58
2023/12/14 04:05:08;;;;;;;2.67;2.47;;;;;;;4.74;100.00;94750.31;5107518;27;20516;-57
2023/12/14 04:07:40;;;;;;;3.33;3.03;;;;;;;4.94;100.00;94745.25;5133944;27;20545;-58
2023/12/14 04:10:10;;;;;;;2.53;1.73;;;;;;;4.94;100.00;94753.13;5134119;27;20880;-59
2023/12/14 04:12:39;;;;;;;2.90;2.67;;;;;;;5.17;100.00;94746.00;5134023;27;20513;-58
2023/12/14 04:15:10;;;;;;;1.07;1.07;;;;;;;5.31;100.00;94755.88;5133901;27;20533;-58
2023/12/14 04:17:39;;;;;;;1.13;1.13;;;;;;;5.25;100.00;94754.22;5133545;27;20434;-58
2023/12/14 04:20:10;;;;;;;3.80;3.37;;;;;;;5.13;100.00;94749.09;5133385;27;20449;-58
2023/12/14 04:22:39;;;;;;;2.03;1.83;;;;;;;5.24;100.00;94757.88;5133500;27;20510;-58
2023/12/14 04:25:08;;;;;;;2.97;2.80;;;;;;;5.17;100.00;94738.91;5133586;27;21021;-59
2023/12/14 04:27:37;;;;;;;4.00;2.60;;;;;;;5.48;100.00;94746.00;5133507;27;20642;-59
2023/12/14 04:30:10;;;;;;;3.67;2.80;;;;;;;5.45;100.00;94743.09;5133637;27;20443;-59
2023/12/14 04:32:39;;;;;;;3.77;3.00;;;;;;;5.47;100.00;94752.31;5133605;27;20513;-58
2023/12/14 04:35:09;;;;;;;2.30;1.87;;;;;;;5.30;100.00;94761.34;5133062;27;20438;-58
2023/12/14 04:37:38;;;;;;;5.83;2.73;;;;;;;5.24;100.00;94751.84;5133643;27;20431;-59
2023/12/14 04:40:08;;;;;;;11.80;2.50;;;;;;;5.13;100.00;94743.09;5133137;27;20430;-59
2023/12/14 04:42:37;;;;;;;5.33;3.27;;;;;;;5.16;100.00;94760.19;5133164;27;20521;-59
2023/12/14 04:45:08;;;;;;;2.77;2.67;;;;;;;5.19;100.00;94763.09;5132848;27;20439;-59
2023/12/14 04:47:37;;;;;;;3.00;2.60;;;;;;;5.28;100.00;94758.19;5133438;27;20527;-59
2023/12/14 04:50:07;;;;;;;3.33;2.77;;;;;;;5.30;100.00;94756.09;5120764;27;20427;-59
2023/12/14 04:52:37;;;;;;;6.43;4.90;;;;;;;5.27;100.00;94759.22;5133588;27;20466;-58
2023/12/14 04:55:08;;;;;;;7.73;4.33;;;;;;;5.31;100.00;94749.81;5133201;27;20431;-59
2023/12/14 04:57:37;;;;;;;4.70;4.33;;;;;;;5.09;100.00;94705.22;5132626;27;20856;-58
2023/12/14 05:00:07;;;;;;;9.90;3.97;;;;;;;5.48;100.00;94742.59;5132920;27;20442;-60
2023/12/14 05:02:36;;;;;;;4.70;4.37;;;;;;;5.43;100.00;94747.81;5133103;27;20438;-57
2023/12/14 05:05:05;;;;;;;7.30;3.00;;;;;;;5.44;100.00;94752.78;5133056;27;20473;-59
2023/12/14 05:07:34;;;;;;;4.87;4.57;;;;;;;5.18;100.00;94701.09;5129080;27;21041;-58
2023/12/14 05:10:05;;;;;;;2.73;2.53;;;;;;;5.48;100.00;94758.34;5112703;28;20794;-58
2023/12/14 05:12:33;;;;;;;4.27;3.97;;;;;;;5.34;100.00;94760.59;5112241;28;20894;-58
2023/12/14 05:15:02;;;;;;;4.73;4.30;;;;;;;5.33;100.00;94755.59;5114516;27;20432;-59
2023/12/14 05:17:31;;;;;;;6.23;4.83;;;;;;;5.24;100.00;94757.88;5132621;27;20513;-59
2023/12/14 05:20:00;;;;;;;2.40;2.20;;;;;;;5.26;100.00;94765.53;5132172;27;20434;-59
2023/12/14 05:22:28;;;;;;;7.13;4.10;;;;;;;5.19;100.00;94755.22;5132143;27;20435;-59
2023/12/14 05:24:57;;;;;;;27.10;4.53;;;;;;;4.57;100.00;94767.97;5132586;27;20475;-58
2023/12/14 05:27:27;;;;;;;4.27;4.07;;;;;;;4.19;100.00;94770.63;5132784;27;20550;-58
2023/12/14 05:29:55;;;;;;;7.03;6.40;;;;;;;3.99;100.00;94770.38;5132723;27;20517;-61
2023/12/14 05:32:24;;;;;;;3.23;3.00;;;;;;;4.31;100.00;94760.81;5127629;27;20449;-59
2023/12/14 05:34:53;;;;;;;10.83;3.30;;;;;;;4.72;100.00;94747.13;5124192;27;20445;-59
2023/12/14 05:37:21;;;;;;;4.33;2.73;;;;;;;4.65;100.00;94754.41;5132541;27;20509;-59
2023/12/14 05:39:50;;;;;;;3.90;2.47;;;;;;;4.80;100.00;94751.16;5132409;27;20434;-58
2023/12/14 05:42:18;;;;;;;3.73;2.00;;;;;;;4.88;100.00;94738.38;5105120;28;20438;-58
2023/12/14 05:44:48;;;;;;;4.33;4.13;;;;;;;4.95;100.00;94744.22;5131361;27;20518;-59
2023/12/14 05:47:17;;;;;;;15.40;4.50;;;;;;;4.41;100.00;94747.81;5131915;28;20480;-58
2023/12/14 05:49:45;;;;;;;3.30;2.97;;;;;;;4.29;100.00;94744.53;5131619;28;20434;-58
2023/12/14 05:52:14;;;;;;;4.80;4.10;;;;;;;4.12;100.00;94713.13;5091499;28;20493;-58
2023/12/14 05:54:42;;;;;;;3.23;3.03;;;;;;;4.69;100.00;94762.56;5091588;28;20509;-57
2023/12/14 05:57:12;;;;;;;3.23;1.67;;;;;;;4.72;100.00;94760.25;5090758;28;20523;-58
2023/12/14 05:59:41;;;;;;;7.40;2.40;;;;;;;4.65;100.00;94764.91;5090752;28;20444;-57
2023/12/14 06:02:12;;;;;;;4.53;3.13;;;;;;;4.45;100.00;94778.56;5091432;28;20483;-57
2023/12/14 06:04:40;;;;;;;2.97;2.77;;;;;;;4.47;100.00;94778.34;5091098;28;20439;-57
2023/12/14 06:07:12;;;;;;;3.03;2.83;;;;;;;4.44;100.00;94778.81;5091681;28;20440;-58
2023/12/14 06:09:40;;;;;;;3.10;3.00;;;;;;;4.62;100.00;94781.16;5090731;28;20932;-57
2023/12/14 06:12:09;;;;;;;2.00;1.90;;;;;;;4.32;100.00;94778.16;5078922;28;20437;-58
2023/12/14 06:14:38;;;;;;;3.40;3.20;;;;;;;4.41;100.00;94782.72;5089334;28;21005;-58
2023/12/14 06:17:07;;;;;;;1.37;1.27;;;;;;;4.55;100.00;94774.50;5090938;28;20440;-58
2023/12/14 06:19:37;;;;;;;1.80;1.70;;;;;;;4.56;100.00;94787.38;5075646;28;20478;-58
2023/12/14 06:22:05;;;;;;;1.73;1.63;;;;;;;4.69;100.00;94794.06;5078415;28;20441;-58
2023/12/14 06:24:34;;;;;;;1.50;1.07;;;;;;;4.46;100.00;94764.44;5081955;28;20433;-59
2023/12/14 06:27:03;;;;;;;2.60;2.10;;;;;;;4.68;100.00;94798.53;5079202;28;20440;-58
2023/12/14 06:29:34;;;;;;;1.83;1.73;;;;;;;4.77;100.00;94791.03;5083853;28;20498;-58
2023/12/14 06:32:02;;;;;;;2.20;2.10;;;;;;;4.91;100.00;94785.13;5086306;28;20539;-58
2023/12/14 06:34:31;;;;;;;3.70;2.63;;;;;;;5.02;100.00;94791.28;5082090;28;20536;-60
2023/12/14 06:37:02;;;;;;;6.67;2.17;;;;;;;5.00;100.00;94783.69;5087990;28;20929;-58
2023/12/14 06:39:31;;;;;;;0.97;0.93;;;;;;;5.07;100.00;94781.63;5090930;28;20451;-58
2023/12/14 06:42:00;;;;;;;3.80;3.30;;;;;;;4.90;100.00;94778.31;5090811;28;20444;-58
2023/12/14 06:44:30;;;;;;;5.70;3.93;;;;;;;4.99;100.00;94787.31;5094767;28;20519;-58
2023/12/14 06:46:59;;;;;;;10.53;2.20;;;;;;;5.21;100.00;94783.88;5094473;28;20826;-59
2023/12/14 06:49:28;;;;;;;2.00;1.90;;;;;;;5.06;100.00;94803.69;5092846;28;20482;-60
2023/12/14 06:51:57;;;;;;;4.60;4.30;;;;;;;5.22;100.00;94795.94;5122330;27;20469;-60
2023/12/14 06:54:27;;;;;;;2.97;2.83;;;;;;;5.02;100.00;94791.28;5109301;27;20445;-59
2023/12/14 06:56:56;;;;;;;3.93;3.60;;;;;;;5.05;100.00;94793.44;5134579;27;20438;-59
2023/12/14 06:59:25;;;;;;;3.27;3.10;;;;;;;5.14;100.00;94787.47;5134855;27;20442;-60
2023/12/14 07:01:54;;;;;;;1.93;1.70;;;;;;;5.36;100.00;94791.91;5135168;27;20435;-60
2023/12/14 07:04:22;;;;;;;2.37;1.97;;;;;;;5.45;100.00;94796.44;5135752;27;20946;-60
2023/12/14 07:06:54;;;;;;;5.73;5.23;;;;;;;5.17;100.00;94809.03;5134718;27;20473;-59
2023/12/14 07:09:23;;;;;;;2.97;2.77;;;;;;;5.01;100.00;94808.06;5135023;27;20536;-60
2023/12/14 07:11:53;;;;;;;1.33;1.30;;;;;;;3.34;100.00;94485.50;5134739;27;20461;-60
2023/12/14 07:14:22;;;;;;;7.80;0.67;;;;;;;5.55;100.00;94811.50;5135037;27;20441;-60
2023/12/14 07:16:53;;;;;;;1.60;1.50;;;;;;;5.79;100.00;94818.03;5134749;27;20914;-60
2023/12/14 07:19:22;;;;;;;6.07;2.70;;;;;;;5.50;100.00;94819.34;5134761;27;20438;-59
2023/12/14 07:21:50;;;;;;;8.37;3.30;;;;;;;5.27;100.00;94815.19;5134630;27;20438;-60
2023/12/14 07:24:19;;;;;;;2.33;1.90;;;;;;;5.38;100.00;94818.72;5135197;27;20471;-60
2023/12/14 07:26:47;;;;;;;1.70;1.60;;;;;;;5.12;100.00;94817.66;5128255;27;20450;-60
2023/12/14 07:29:18;;;;;;;2.30;1.20;;;;;;;5.33;100.00;94816.03;5129793;27;20476;-59
2023/12/14 07:31:46;;;;;;;3.33;2.60;;;;;;;5.37;100.00;94825.00;5135135;27;20825;-60
2023/12/14 07:34:15;;;;;;;2.47;2.37;;;;;;;5.40;100.00;94820.03;5134431;27;20525;-58
2023/12/14 07:36:43;;;;;;;0.97;0.97;;;;;;;5.60;100.00;94812.34;5134424;27;20438;-59
2023/12/14 07:39:12;;;;;;;1.80;1.70;;;;;;;5.76;100.00;94819.31;5134667;27;20442;-60
2023/12/14 07:41:40;;;;;;;2.53;2.33;;;;;;;5.69;100.00;94828.47;5134608;27;20438;-59
2023/12/14 07:44:09;;;;;;;19.47;1.93;;;;;;;5.79;100.00;94831.16;5134655;27;20438;-59
2023/12/14 07:46:41;;;;;;;3.47;3.23;;;;;;;5.90;100.00;94830.22;5134053;27;20442;-60
2023/12/14 07:49:10;;;;;;;1.43;1.33;;;;;;;6.11;100.00;94824.06;5134354;27;20481;-60
2023/12/14 07:51:39;;;;;;;2.07;1.97;;;;;;;6.36;100.00;94823.44;5119235;27;20462;-61
2023/12/14 07:54:07;;;;;;;16.03;2.70;;;;;;;6.44;100.00;94791.38;5133807;27;20435;-60
2023/12/14 07:56:36;;;;;;;3.33;2.70;;;;;;;6.71;100.00;94828.09;5133994;27;20437;-59
2023/12/14 07:59:07;;;;;;;10.53;2.53;;;;;;;6.71;100.00;94839.41;5133859;27;20518;-61
2023/12/14 08:01:36;;;;;;;18.77;1.40;;;;;;;6.56;100.00;94822.75;5132510;27;20911;-60
2023/12/14 08:04:06;;;;;;;2.30;2.10;;;;;;;6.67;100.00;94819.13;5133932;27;20448;-60
2023/12/14 08:06:34;;;;;;;4.37;2.50;;;;;;;6.66;100.00;94820.16;5134200;27;20499;-60
2023/12/14 08:09:04;;;;;;;18.23;3.50;;;;;;;6.67;100.00;94821.75;5132802;27;20477;-61
2023/12/14 08:11:33;;;;;;;2.23;2.13;;;;;;;6.69;100.00;94825.72;5106221;27;20442;-61
2023/12/14 08:14:01;;;;;;;5.10;3.50;;;;;;;6.66;100.00;94825.44;5133234;27;20487;-61
2023/12/14 08:16:30;;;;;;;5.20;4.20;;;;;;;6.82;100.00;94833.16;5133428;27;20518;-61
2023/12/14 08:18:59;;;;;;;5.90;4.07;;;;;;;6.70;100.00;94840.47;5132900;27;20493;-60
2023/12/14 08:21:29;;;;;;;9.17;5.37;;;;;;;6.16;100.00;94839.91;5133741;27;20466;-57
2023/12/14 08:23:57;;;;;;;11.70;5.87;;;;;;;5.48;100.00;94779.38;5120528;27;21141;-60
2023/12/14 08:26:26;;;;;;;3.50;3.20;;;;;;;6.01;100.00;94842.41;5133965;27;20517;-59
2023/12/14 08:28:55;;;;;;;5.13;4.67;;;;;;;5.84;100.00;94846.19;5133405;27;20506;-60
2023/12/14 08:31:23;;;;;;;6.73;2.57;;;;;;;5.83;100.00;94840.13;5133155;27;20823;-60
2023/12/14 08:33:52;;;;;;;4.50;1.57;;;;;;;6.05;100.00;94832.97;5133579;27;20518;-61
2023/12/14 08:36:21;;;;;;;2.70;2.23;;;;;;;6.29;100.00;94823.66;5133549;27;20442;-61
2023/12/14 08:38:51;;;;;;;0.97;0.97;;;;;;;6.71;100.00;94814.91;5132976;27;20967;-60
2023/12/14 08:41:19;;;;;;;2.00;1.77;;;;;;;6.67;100.00;94819.91;5133226;27;20470;-60
2023/12/14 08:43:48;;;;;;;1.60;1.50;;;;;;;6.34;100.00;94815.81;5132497;27;20439;-60
2023/12/14 08:46:16;;;;;;;1.93;1.83;;;;;;;6.55;100.00;94810.66;5133397;27;20513;-60
2023/12/14 08:48:45;;;;;;;2.50;1.80;;;;;;;6.36;100.00;94797.13;5133221;27;20491;-61
2023/12/14 08:51:14;;;;;;;4.17;3.80;;;;;;;6.02;100.00;94801.13;5132616;27;20466;-60
2023/12/14 08:53:43;;;;;;;3.70;3.50;;;;;;;5.89;100.00;94802.34;5106395;27;20434;-61
2023/12/14 08:56:13;;;;;;;7.10;3.63;;;;;;;6.32;100.00;94807.34;5132248;27;20920;-60
2023/12/14 08:58:41;;;;;;;12.63;3.23;;;;;;;6.35;100.00;94808.69;5133085;27;20522;-61
2023/12/14 09:01:10;;;;;;;1.47;1.37;;;;;;;6.17;100.00;94806.50;5133080;27;20499;-61
2023/12/14 09:03:39;;;;;;;1.37;1.27;;;;;;;6.15;100.00;94805.91;5133305;27;20446;-61
2023/12/14 09:06:08;;;;;;;3.10;2.90;;;;;;;5.99;100.00;94791.91;5132717;27;21132;-61
2023/12/14 09:08:36;;;;;;;3.00;1.70;;;;;;;6.24;100.00;94813.13;5132992;27;20514;-61
2023/12/14 09:11:05;;;;;;;7.10;2.10;;;;;;;6.01;100.00;94808.22;5132667;27;20477;-61
2023/12/14 09:13:35;;;;;;;1.13;1.03;;;;;;;6.06;100.00;94797.72;5132837;27;20538;-61
2023/12/14 09:16:04;;;;;;;2.83;2.10;;;;;;;6.43;100.00;94799.50;5132766;27;20852;-61
2023/12/14 09:18:33;;;;;;;2.33;1.90;;;;;;;6.07;100.00;94801.16;5133315;27;20441;-61
2023/12/14 09:21:03;;;;;;;2.10;0.93;;;;;;;6.51;100.00;94797.19;5132837;27;20845;-61
2023/12/14 09:23:31;;;;;;;5.87;2.40;;;;;;;6.69;100.00;94798.59;5132643;27;21133;-60
2023/12/14 09:26:00;;;;;;;5.47;2.50;;;;;;;6.68;100.00;94787.25;5132190;27;20923;-60
2023/12/14 09:28:29;;;;;;;1.53;1.43;;;;;;;6.89;100.00;94793.41;5132402;27;20446;-61
2023/12/14 09:30:59;;;;;;;1.30;1.30;;;;;;;7.01;100.00;94793.94;5106236;27;20542;-61
2023/12/14 09:33:27;;;;;;;1.93;1.83;;;;;;;7.29;100.00;94782.94;5132594;27;20435;-59
2023/12/14 09:35:56;;;;;;;1.43;1.10;;;;;;;7.63;100.00;94775.34;5132576;27;20462;-60
2023/12/14 09:38:25;;;;;;;1.23;1.23;;;;;;;8.03;100.00;94748.94;5123693;27;20434;-60
2023/12/14 09:40:53;;;;;;;9.77;3.50;;;;;;;8.44;100.00;94749.66;5132128;27;20441;-60
2023/12/14 09:43:23;;;;;;;5.57;2.53;;;;;;;8.60;100.00;94742.47;5105981;28;20472;-62
2023/12/14 09:45:53;;;;;;;1.70;1.53;;;;;;;8.72;100.00;94735.03;5131229;27;20882;-62
2023/12/14 09:48:24;;;;;;;6.30;5.70;;;;;;;9.34;100.00;94742.31;5127920;28;20494;-64
2023/12/14 09:50:53;;;;;;;5.27;4.87;;;;;;;9.18;100.00;94715.22;5132037;27;20492;-63
2023/12/14 09:53:21;;;;;;;9.23;4.60;;;;;;;9.51;100.00;94717.06;5131804;28;20468;-60
2023/12/14 09:55:50;;;;;;;6.07;5.60;;;;;;;9.80;98.52;94725.03;5131908;28;20434;-61
2023/12/14 09:58:18;;;;;;;9.27;5.00;;;;;;;10.11;97.40;94714.97;5131390;28;20434;-62
2023/12/14 10:00:47;;;;;;;19.30;6.10;;;;;;;10.53;94.15;94723.00;5121987;28;20500;-62
2023/12/14 10:03:21;;;;;;;6.53;5.93;;;;;;;11.28;91.95;94709.81;5123683;28;20448;-61
2023/12/14 10:05:51;;;;;;;18.27;7.97;;;;;;;11.66;88.04;94702.59;5111995;28;20441;-62
2023/12/14 10:08:21;;;;;;;15.70;9.60;;;;;;;12.33;85.45;94691.34;5128015;28;20437;-63
2023/12/14 10:10:52;;;;;;;21.73;6.50;;;;;;;12.45;82.51;94694.28;5132176;27;20489;-61
2023/12/14 10:13:23;;;;;;;8.00;5.90;;;;;;;12.50;83.05;94714.66;5126804;28;20927;-60
2023/12/14 10:15:52;;;;;;;8.43;7.20;;;;;;;12.73;80.63;94714.47;5124080;28;20438;-59
2023/12/14 10:18:24;;;;;;;7.63;6.87;;;;;;;12.75;78.98;94720.25;5133106;27;20470;-59
2023/12/14 10:20:55;;;;;;;9.47;6.83;;;;;;;12.73;79.17;94708.34;5122278;27;20439;-59
2023/12/14 10:23:24;;;;;;;10.53;7.27;;;;;;;12.27;78.42;94708.44;5114213;27;20434;-59
2023/12/14 10:25:54;;;;;;;8.80;5.53;;;;;;;12.50;78.43;94699.50;5135581;27;20439;-59
2023/12/14 10:28:24;;;;;;;7.70;4.83;;;;;;;12.52;76.55;94699.22;5134710;27;20434;-59
2023/12/14 10:30:53;;;;;;;7.30;5.00;;;;;;;12.08;77.61;94700.56;5126393;27;20473;-59
2023/12/14 10:33:22;;;;;;;4.17;3.73;;;;;;;12.20;77.01;94692.09;5135748;27;20441;-59
2023/12/14 10:35:51;;;;;;;5.83;3.80;;;;;;;12.14;76.96;94685.34;5135340;27;20434;-60
2023/12/14 10:38:22;;;;;;;5.30;4.10;;;;;;;11.85;77.55;94669.63;5135224;27;20439;-61
2023/12/14 10:40:53;;;;;;;10.93;4.23;;;;;;;11.75;80.01;94671.69;5135902;27;20434;-62
2023/12/14 10:43:22;;;;;;;9.63;2.27;;;;;;;11.80;79.74;94666.28;5135514;27;20435;-61
2023/12/14 10:46:11;;;;;;;5.80;4.50;;;;;;;11.92;82.34;94659.41;5135580;27;20517;-62
2023/12/14 10:48:42;;;;;;;4.80;4.60;;;;;;;12.19;78.72;94655.22;5116102;27;20442;-64
2023/12/14 10:51:12;;;;;;;2.50;2.40;;;;;;;11.87;79.03;94661.38;5128321;27;20486;-65
2023/12/14 10:53:47;;;;;;;5.37;2.93;;;;;;;11.95;79.33;94669.47;5105930;27;20781;-64
2023/12/14 10:56:16;;;;;;;3.10;2.10;;;;;;;12.00;79.21;94666.72;5129951;27;20430;-63
2023/12/14 10:58:49;;;;;;;4.27;3.97;;;;;;;11.27;81.03;94655.97;5135270;27;20470;-62
2023/12/14 11:01:20;;;;;;;2.97;2.77;;;;;;;11.01;83.31;94660.06;5134517;27;20530;-61
2023/12/14 11:03:49;;;;;;;3.13;2.57;;;;;;;11.40;83.00;94662.41;5135618;27;20431;-61
2023/12/14 11:06:31;;;;;;;2.33;2.10;;;;;;;11.29;82.83;94659.13;5135058;27;20850;-60
2023/12/14 11:09:06;;;;;;;2.60;2.40;;;;;;;10.51;86.99;94660.75;5134330;27;21034;-60
2023/12/14 11:11:57;;;;;;;4.87;2.43;;;;;;;10.63;90.22;94653.19;5108989;27;20486;-60
2023/12/14 11:14:27;;;;;;;15.07;2.93;;;;;;;10.53;90.17;94658.59;5135104;27;20907;-61
2023/12/14 11:16:57;;;;;;;5.50;3.17;;;;;;;10.42;92.23;94660.63;5135189;27;20927;-60
2023/12/14 11:19:28;;;;;;;3.80;2.10;;;;;;;10.70;91.44;94664.25;5134659;27;20953;-61
2023/12/14 11:22:24;;;;;;;2.53;2.43;;;;;;;10.66;90.78;94664.00;5135048;27;20442;-61
2023/12/14 11:24:56;;;;;;;4.03;3.33;;;;;;;10.34;93.73;94640.06;5114524;27;20434;-60
2023/12/14 11:27:30;;;;;;;7.30;6.23;;;;;;;10.61;94.16;94637.56;5125695;27;20442;-61
2023/12/14 11:30:00;;;;;;;3.10;3.00;;;;;;;10.95;91.15;94625.97;5133980;27;20913;-59
2023/12/14 11:32:28;;;;;;;3.30;3.00;;;;;;;10.60;92.24;94627.28;5128953;27;20438;-60
2023/12/14 11:34:58;;;;;;;7.13;3.03;;;;;;;10.65;93.66;94598.06;5133902;27;20529;-60
2023/12/14 11:37:27;;;;;;;3.27;3.07;;;;;;;10.78;91.50;94627.25;5134803;27;20434;-61
2023/12/14 11:39:57;;;;;;;2.97;2.80;;;;;;;10.33;94.76;94632.38;5120469;27;20442;-65
2023/12/14 11:42:31;;;;;;;6.17;2.83;;;;;;;10.52;94.02;94619.97;5134367;27;20515;-59